Time;durP1;ratioP1;P1;durP2;ratioP2;P2;SDS_P1;SDS_P2;PMS_P1;PMS_P2;Temp;Humidity;BMP_temperature;BMP_pressure;BME280_temperature;BME280_humidity;BME280_pressure;Samples;Min_cycle;Max_cycle;Signal;HPM_P1;HPM_P2
2023/01/11 00:00:45;;;;;;;9.45;5.13;;;8.70;99.90;;;;;;6220916;22;20051;-85
2023/01/11 00:03:14;;;;;;;6.28;4.85;;;9.60;99.90;;;;;;6246284;22;20035;-87
2023/01/11 00:05:41;;;;;;;6.60;5.13;;;9.60;99.90;;;;;;6273807;22;20023;-82
2023/01/11 00:08:07;;;;;;;6.32;4.22;;;9.80;99.90;;;;;;6246484;22;20086;-86
2023/01/11 00:10:33;;;;;;;6.85;4.80;;;9.30;99.90;;;;;;6220277;22;20058;-85
2023/01/11 00:13:00;;;;;;;7.90;5.47;;;8.80;99.90;;;;;;6273842;22;20384;-87
2023/01/11 00:15:26;;;;;;;7.10;5.18;;;8.90;99.90;;;;;;6220987;22;20020;-87
2023/01/11 00:17:52;;;;;;;6.93;5.43;;;10.00;99.90;;;;;;6274028;22;20026;-85
2023/01/11 00:20:20;;;;;;;8.15;6.47;;;9.70;99.90;;;;;;6246672;22;20063;-87
2023/01/11 00:22:46;;;;;;;5.82;4.43;;;8.80;99.90;;;;;;6246417;22;20024;-83
2023/01/11 00:25:12;;;;;;;8.20;5.70;;;9.00;99.90;;;;;;6245932;22;20318;-88
2023/01/11 00:27:46;;;;;;;7.75;5.80;;;9.50;99.90;;;;;;6221792;22;20076;-87
2023/01/11 00:30:11;;;;;;;7.60;5.43;;;9.00;99.90;;;;;;6246308;22;20027;-85
2023/01/11 00:32:37;;;;;;;6.75;4.75;;;9.10;99.90;;;;;;6246474;22;20020;-84
2023/01/11 00:35:03;;;;;;;6.00;4.78;;;9.80;99.90;;;;;;6274184;22;20026;-85
2023/01/11 00:37:29;;;;;;;5.50;4.03;;;9.10;99.90;;;;;;6245928;22;20023;-83
2023/01/11 00:39:54;;;;;;;7.38;5.07;;;9.10;99.90;;;;;;6273451;22;20012;-86
2023/01/11 00:48:03;;;;;;;5.90;4.60;;;9.20;99.90;;;;;;6246098;22;20031;-82
2023/01/11 00:50:40;;;;;;;6.20;4.72;;;9.80;99.90;;;;;;6273343;22;20066;-85
2023/01/11 00:53:07;;;;;;;6.45;4.93;;;10.20;99.90;;;;;;6272856;22;20444;-85
2023/01/11 00:55:33;;;;;;;5.85;4.00;;;9.20;99.90;;;;;;6220350;22;20023;-82
2023/01/11 00:58:00;;;;;;;6.32;4.35;;;10.10;99.90;;;;;;6272961;22;20019;-85
2023/01/11 01:00:27;;;;;;;5.80;4.57;;;9.30;99.90;;;;;;6273408;22;20344;-84
2023/01/11 01:02:53;;;;;;;7.18;4.70;;;9.30;99.90;;;;;;6245920;22;20019;-86
2023/01/11 01:05:18;;;;;;;6.10;4.72;;;9.00;99.90;;;;;;6220587;22;20011;-83
2023/01/11 01:07:45;;;;;;;5.20;4.00;;;10.10;99.90;;;;;;6272982;22;20046;-84
2023/01/11 01:10:12;;;;;;;4.70;3.42;;;9.60;99.90;;;;;;6245953;22;20126;-82
2023/01/11 01:15:23;;;;;;;5.70;4.17;;;9.40;99.90;;;;;;6272977;22;20023;-85
2023/01/11 01:17:51;;;;;;;5.25;4.10;;;10.00;99.90;;;;;;6272867;22;20023;-83
2023/01/11 01:20:16;;;;;;;5.28;3.83;;;10.40;99.90;;;;;;6272455;22;20027;-85
2023/01/11 01:22:42;;;;;;;6.35;3.33;;;9.50;99.90;;;;;;6273210;22;20019;-88
2023/01/11 01:25:08;;;;;;;5.38;3.38;;;9.50;99.90;;;;;;6220364;22;20385;-84
2023/01/11 01:27:34;;;;;;;5.03;3.30;;;10.00;99.90;;;;;;6272400;22;20027;-81
2023/01/11 01:29:59;;;;;;;5.18;3.40;;;10.20;99.90;;;;;;6245907;22;20055;-83
2023/01/11 01:32:25;;;;;;;4.60;3.55;;;9.60;99.90;;;;;;6273073;22;20619;-84
2023/01/11 01:34:51;;;;;;;5.53;3.80;;;10.40;99.90;;;;;;6272515;22;20062;-84
2023/01/11 01:37:16;;;;;;;4.25;3.40;;;10.10;99.90;;;;;;6273079;22;20055;-84
2023/01/11 01:39:42;;;;;;;5.03;3.10;;;10.30;99.90;;;;;;6273132;22;20023;-84
2023/01/11 01:42:19;;;;;;;4.25;2.72;;;9.60;99.90;;;;;;6273117;22;20035;-84
2023/01/11 01:45:17;;;;;;;4.85;3.13;;;9.60;99.90;;;;;;6272224;22;20445;-85
2023/01/11 01:47:56;;;;;;;4.40;3.22;;;9.60;99.90;;;;;;6272871;22;20038;-84
2023/01/11 01:50:28;;;;;;;4.88;2.90;;;10.60;99.90;;;;;;6272856;22;20012;-86
2023/01/11 01:53:08;;;;;;;4.82;3.15;;;9.70;99.90;;;;;;6220321;22;20053;-87
2023/01/11 01:55:42;;;;;;;4.97;3.03;;;9.70;99.90;;;;;;6272877;22;20030;-87
2023/01/11 01:58:15;;;;;;;3.60;2.72;;;10.10;99.90;;;;;;6245091;22;20007;-84
2023/01/11 02:00:43;;;;;;;5.80;3.25;;;10.50;99.90;;;;;;6272454;22;20057;-86
2023/01/11 02:03:12;;;;;;;4.03;2.83;;;10.60;99.90;;;;;;6272365;22;20024;-84
2023/01/11 02:05:38;;;;;;;3.90;2.70;;;10.60;99.90;;;;;;6219810;22;20026;-85
2023/01/11 02:08:12;;;;;;;4.10;2.95;;;10.70;99.90;;;;;;6245560;22;20095;-86
2023/01/11 02:10:38;;;;;;;4.35;2.50;;;10.70;99.90;;;;;;6244953;22;20437;-85
2023/01/11 02:13:13;;;;;;;4.80;3.10;;;9.80;99.90;;;;;;6272198;22;20026;-85
2023/01/11 02:15:39;;;;;;;4.32;3.10;;;9.90;99.90;;;;;;6272171;22;20019;-84
2023/01/11 02:18:10;;;;;;;3.50;2.40;;;10.60;99.90;;;;;;6272814;22;20007;-83
2023/01/11 02:21:07;;;;;;;4.47;2.80;;;9.90;99.90;;;;;;6245222;22;20054;-85
2023/01/11 02:24:01;;;;;;;4.25;2.63;;;9.90;99.90;;;;;;6272930;22;20035;-84
2023/01/11 02:26:52;;;;;;;3.17;2.33;;;10.70;99.90;;;;;;6245252;22;20016;-84
2023/01/11 02:29:26;;;;;;;4.10;2.38;;;10.00;99.90;;;;;;6245345;22;20318;-83
2023/01/11 02:32:12;;;;;;;3.42;2.28;;;10.00;99.90;;;;;;6271989;22;20754;-85
2023/01/11 02:34:53;;;;;;;3.80;2.42;;;10.00;99.90;;;;;;6219572;22;20209;-85
2023/01/11 02:37:46;;;;;;;3.58;2.20;;;10.00;99.90;;;;;;6270766;22;20019;-85
2023/01/11 02:40:28;;;;;;;3.22;2.10;;;10.70;99.90;;;;;;6272307;22;20030;-86
2023/01/11 02:46:12;;;;;;;4.60;2.70;;;10.10;99.90;;;;;;6272229;22;20019;-89
2023/01/11 02:48:57;;;;;;;3.33;1.95;;;10.00;99.90;;;;;;6244720;22;20012;-83
2023/01/11 02:51:37;;;;;;;4.03;2.58;;;10.10;99.90;;;;;;6219688;22;20026;-82
2023/01/11 02:54:15;;;;;;;4.10;2.75;;;10.10;99.90;;;;;;6245097;22;20058;-84
2023/01/11 02:56:47;;;;;;;4.60;2.60;;;10.10;99.90;;;;;;6245065;22;20020;-84
2023/01/11 02:59:19;;;;;;;3.75;2.40;;;11.10;99.90;;;;;;6271864;22;20018;-86
2023/01/11 03:01:47;;;;;;;3.25;2.15;;;10.10;99.90;;;;;;6244144;22;20016;-82
2023/01/11 03:04:30;;;;;;;4.20;2.40;;;10.80;99.90;;;;;;6245020;22;20022;-84
2023/01/11 03:07:13;;;;;;;3.05;2.35;;;10.10;99.90;;;;;;6272553;22;20027;-83
2023/01/11 03:09:51;;;;;;;3.50;2.17;;;10.20;99.90;;;;;;6272045;22;20011;-82
2023/01/11 03:12:55;;;;;;;3.08;2.17;;;10.20;99.90;;;;;;6271829;22;20452;-83
2023/01/11 03:15:48;;;;;;;2.85;1.80;;;10.20;99.90;;;;;;6271761;22;20023;-84
2023/01/11 03:18:58;;;;;;;3.00;2.00;;;10.20;99.90;;;;;;6272115;22;20054;-84
2023/01/11 03:21:50;;;;;;;4.18;2.00;;;10.20;99.90;;;;;;6179680;23;20021;-83
2023/01/11 03:24:27;;;;;;;4.68;1.90;;;10.20;99.90;;;;;;6154650;23;20021;-82
2023/01/11 03:27:15;;;;;;;3.65;2.10;;;11.10;99.90;;;;;;6179474;23;20021;-84
2023/01/11 03:30:00;;;;;;;4.25;2.45;;;10.30;99.90;;;;;;6129819;23;20044;-83
2023/01/11 03:32:41;;;;;;;3.28;2.17;;;10.30;99.90;;;;;;6179400;23;20163;-83
2023/01/11 03:35:36;;;;;;;5.28;2.10;;;10.40;99.90;;;;;;6179930;23;20027;-82
2023/01/11 03:38:04;;;;;;;4.38;1.83;;;10.40;99.90;;;;;;6180013;22;20017;-85
2023/01/11 03:40:35;;;;;;;7.30;2.00;;;10.70;99.90;;;;;;6154921;23;20020;-83
2023/01/11 03:43:12;;;;;;;6.45;1.98;;;11.20;99.90;;;;;;6155256;23;20075;-80
2023/01/11 03:45:56;;;;;;;6.60;2.13;;;10.50;99.90;;;;;;6179701;23;20332;-84
2023/01/11 03:48:33;;;;;;;6.93;1.90;;;10.50;99.90;;;;;;6179454;23;20465;-84
2023/01/11 03:51:01;;;;;;;8.07;1.83;;;10.50;99.90;;;;;;6183991;22;20401;-84
2023/01/11 03:53:30;;;;;;;11.15;2.80;;;10.50;99.90;;;;;;6245867;22;20055;-83
2023/01/11 03:55:57;;;;;;;8.60;2.50;;;10.60;99.90;;;;;;6273742;22;20022;-84
2023/01/11 03:58:26;;;;;;;8.63;2.50;;;11.00;99.90;;;;;;6273864;22;20070;-85
2023/01/11 04:00:54;;;;;;;9.40;2.42;;;11.30;99.90;;;;;;6273329;22;20015;-81
2023/01/11 04:03:20;;;;;;;11.05;3.10;;;11.50;99.90;;;;;;6273587;22;20086;-80
2023/01/11 04:05:51;;;;;;;8.60;2.97;;;11.40;99.90;;;;;;6245919;22;20039;-80
2023/01/11 04:08:16;;;;;;;11.48;2.95;;;11.10;99.90;;;;;;6272062;22;20023;-80
2023/01/11 04:10:42;;;;;;;9.23;2.58;;;11.40;99.90;;;;;;6273369;22;20015;-85
2023/01/11 04:13:07;;;;;;;14.00;2.88;;;11.40;99.90;;;;;;6273298;22;20054;-80
2023/01/11 04:15:34;;;;;;;19.17;3.42;;;10.70;99.90;;;;;;6246772;22;20027;-81
2023/01/11 04:18:06;;;;;;;23.42;4.03;;;11.20;99.90;;;;;;6246246;22;20016;-81
2023/01/11 04:20:37;;;;;;;12.45;3.13;;;11.30;99.90;;;;;;6273526;22;20111;-80
2023/01/11 04:23:03;;;;;;;17.95;3.35;;;10.60;99.90;;;;;;6246144;22;20480;-82
2023/01/11 04:25:29;;;;;;;19.75;3.92;;;11.30;99.90;;;;;;6246174;22;20437;-79
2023/01/11 04:27:55;;;;;;;21.00;3.97;;;10.60;99.90;;;;;;6246138;22;20028;-81
2023/01/11 04:30:21;;;;;;;15.43;3.15;;;10.80;99.90;;;;;;6245408;22;20023;-84
2023/01/11 04:32:47;;;;;;;20.30;3.15;;;10.60;99.90;;;;;;6273679;22;20019;-81
2023/01/11 04:35:12;;;;;;;15.65;2.80;;;11.30;99.90;;;;;;6245873;22;20016;-80
2023/01/11 04:37:38;;;;;;;22.30;3.97;;;11.10;99.90;;;;;;6273224;22;20364;-81
2023/01/11 04:40:04;;;;;;;27.70;3.80;;;10.60;99.90;;;;;;6246231;22;20047;-81
2023/01/11 04:42:30;;;;;;;17.70;3.60;;;10.60;99.90;;;;;;6274153;22;20008;-81
2023/01/11 04:44:56;;;;;;;20.75;3.35;;;11.20;99.90;;;;;;6245600;22;20020;-82
2023/01/11 04:47:23;;;;;;;19.15;3.33;;;10.70;99.90;;;;;;6273353;22;20020;-79
2023/01/11 04:49:50;;;;;;;17.45;3.08;;;10.50;99.90;;;;;;6246401;22;20077;-82
2023/01/11 04:52:17;;;;;;;24.40;4.07;;;10.70;99.90;;;;;;6245288;22;20015;-83
2023/01/11 04:54:43;;;;;;;21.05;3.78;;;11.00;99.90;;;;;;6273763;22;20019;-82
2023/01/11 04:57:14;;;;;;;14.98;2.47;;;10.90;99.90;;;;;;6246475;22;20491;-82
2023/01/11 04:59:40;;;;;;;19.80;2.78;;;10.30;99.90;;;;;;6273742;22;20022;-83
2023/01/11 05:02:06;;;;;;;13.50;1.90;;;10.30;99.90;;;;;;6273425;22;20079;-82
2023/01/11 05:04:32;;;;;;;11.88;1.85;;;10.90;99.90;;;;;;6273567;22;20015;-82
2023/01/11 05:06:57;;;;;;;17.08;2.78;;;10.70;99.90;;;;;;6272835;22;20337;-82
2023/01/11 05:09:23;;;;;;;15.27;2.13;;;11.00;99.90;;;;;;6273245;22;20092;-84
2023/01/11 05:11:49;;;;;;;13.98;1.83;;;10.10;99.90;;;;;;6271462;22;20457;-84
2023/01/11 05:14:16;;;;;;;14.27;2.20;;;10.30;99.90;;;;;;6245620;22;20020;-82
2023/01/11 05:16:42;;;;;;;20.48;2.45;;;10.70;99.90;;;;;;6273050;22;20081;-84
2023/01/11 05:19:09;;;;;;;18.40;2.65;;;10.70;99.90;;;;;;6246136;22;20345;-86
2023/01/11 05:21:40;;;;;;;19.38;2.90;;;10.00;99.90;;;;;;6245999;22;20024;-83
2023/01/11 05:24:10;;;;;;;24.58;3.05;;;10.50;99.90;;;;;;6272904;22;20026;-84
2023/01/11 05:26:38;;;;;;;22.90;3.50;;;10.90;99.90;;;;;;6273739;22;20011;-83
2023/01/11 05:29:07;;;;;;;24.73;2.88;;;10.60;99.90;;;;;;6273859;22;20798;-85
2023/01/11 05:31:34;;;;;;;32.53;4.30;;;10.00;99.90;;;;;;6221157;22;20049;-80
2023/01/11 05:34:00;;;;;;;29.58;4.15;;;10.90;99.90;;;;;;6246013;22;20077;-83
2023/01/11 05:36:26;;;;;;;24.35;3.38;;;10.00;99.90;;;;;;6273505;22;20118;-85
2023/01/11 05:38:54;;;;;;;32.20;3.72;;;10.70;99.90;;;;;;6220033;22;20055;-83
2023/01/11 05:41:24;;;;;;;26.73;3.85;;;10.90;99.90;;;;;;6245922;22;20042;-84
2023/01/11 05:46:37;;;;;;;36.80;3.85;;;10.00;99.90;;;;;;6245719;22;20020;-83
2023/01/11 05:49:03;;;;;;;26.92;3.35;;;10.80;99.90;;;;;;6245606;22;20356;-82
2023/01/11 05:51:31;;;;;;;26.00;2.80;;;10.80;99.90;;;;;;6272779;22;20094;-81
2023/01/11 05:53:58;;;;;;;19.83;3.17;;;10.70;99.90;;;;;;6272354;22;20449;-87
2023/01/11 05:56:24;;;;;;;16.55;3.10;;;10.10;99.90;;;;;;6272764;22;20505;-82
2023/01/11 05:58:51;;;;;;;23.75;3.75;;;9.90;99.90;;;;;;6273000;22;20528;-83
2023/01/11 06:01:19;;;;;;;21.38;2.85;;;10.70;99.90;;;;;;6244978;22;20019;-84
2023/01/11 06:03:45;;;;;;;25.10;3.35;;;10.10;99.90;;;;;;6273052;22;20094;-83
2023/01/11 06:06:11;;;;;;;20.38;3.50;;;10.50;99.90;;;;;;6245311;22;20055;-85
2023/01/11 06:08:37;;;;;;;27.10;3.80;;;9.70;99.90;;;;;;6272735;22;20019;-86
2023/01/11 06:11:03;;;;;;;32.90;3.42;;;10.30;99.90;;;;;;6219186;22;20026;-85
2023/01/11 06:13:29;;;;;;;19.60;2.60;;;9.60;99.90;;;;;;6245035;22;20031;-85
2023/01/11 06:16:05;;;;;;;24.42;3.50;;;10.60;99.90;;;;;;6245394;22;20020;-83
2023/01/11 06:18:33;;;;;;;28.23;3.70;;;9.60;99.90;;;;;;6272478;22;20082;-85
2023/01/11 06:21:00;;;;;;;28.10;3.55;;;10.50;99.90;;;;;;6245597;22;20651;-83
2023/01/11 06:23:27;;;;;;;28.00;3.45;;;9.90;99.90;;;;;;6273136;22;20413;-83
2023/01/11 06:25:53;;;;;;;30.67;4.03;;;9.50;99.90;;;;;;6245337;22;20016;-85
2023/01/11 06:28:19;;;;;;;26.45;3.72;;;10.40;99.90;;;;;;6270280;22;20090;-80
2023/01/11 06:30:51;;;;;;;22.15;3.67;;;10.40;99.90;;;;;;6244950;22;20042;-81
2023/01/11 06:33:17;;;;;;;37.10;3.70;;;9.50;99.90;;;;;;6272634;22;20055;-84
2023/01/11 06:35:43;;;;;;;19.02;2.80;;;9.50;99.90;;;;;;6272716;22;20078;-84
2023/01/11 06:38:11;;;;;;;29.83;3.20;;;10.30;99.90;;;;;;6272521;22;20062;-86
2023/01/11 06:40:38;;;;;;;21.38;3.15;;;9.60;99.90;;;;;;6245228;22;20015;-85
2023/01/11 06:43:04;;;;;;;20.63;2.85;;;9.50;99.90;;;;;;6272181;22;20103;-87
2023/01/11 06:45:30;;;;;;;23.10;3.10;;;9.50;99.90;;;;;;6272060;22;20020;-85
2023/01/11 06:47:57;;;;;;;27.73;3.22;;;10.20;99.90;;;;;;6272293;22;20104;-86
2023/01/11 06:50:23;;;;;;;17.33;2.80;;;10.30;99.90;;;;;;6245164;22;20022;-81
2023/01/11 06:52:56;;;;;;;26.35;3.25;;;10.30;99.90;;;;;;6272874;22;20019;-84
2023/01/11 06:55:23;;;;;;;26.30;3.13;;;9.40;99.90;;;;;;6222127;22;20030;-86
2023/01/11 06:57:49;;;;;;;22.42;3.05;;;9.40;99.90;;;;;;6273814;22;20020;-85
2023/01/11 07:00:15;;;;;;;17.80;2.70;;;10.40;99.90;;;;;;6247482;22;20039;-84
2023/01/11 07:02:42;;;;;;;15.95;2.83;;;9.40;99.90;;;;;;6274814;22;20082;-85
2023/01/11 07:05:08;;;;;;;22.02;3.10;;;10.10;99.90;;;;;;6274537;22;20392;-87
2023/01/11 07:07:33;;;;;;;17.23;2.80;;;9.30;99.90;;;;;;6221616;22;20069;-86
2023/01/11 07:09:59;;;;;;;20.83;2.78;;;9.60;99.90;;;;;;6247079;22;20024;-85
2023/01/11 07:12:25;;;;;;;16.52;2.88;;;9.40;99.90;;;;;;6273861;22;20023;-85
2023/01/11 07:14:51;;;;;;;22.30;2.58;;;9.80;99.90;;;;;;6274371;22;20023;-88
2023/01/11 07:17:16;;;;;;;21.20;3.30;;;9.20;99.90;;;;;;6246569;22;20033;-86
2023/01/11 07:19:42;;;;;;;21.60;2.78;;;9.60;99.90;;;;;;6221213;22;20357;-87
2023/01/11 07:22:10;;;;;;;19.00;2.63;;;10.10;99.90;;;;;;6247212;22;20077;-86
2023/01/11 07:24:36;;;;;;;20.58;3.22;;;9.90;99.90;;;;;;6221461;22;20530;-87
2023/01/11 07:27:01;;;;;;;20.50;3.70;;;10.00;99.90;;;;;;6221341;22;20027;-87
2023/01/11 07:29:28;;;;;;;18.00;3.17;;;9.00;99.90;;;;;;6220876;22;20046;-86
2023/01/11 07:31:56;;;;;;;26.13;2.85;;;9.10;99.90;;;;;;6246709;22;20383;-86
2023/01/11 07:34:22;;;;;;;20.73;2.85;;;9.40;99.90;;;;;;6221022;22;20524;-83
2023/01/11 07:36:51;;;;;;;21.73;3.00;;;10.00;99.90;;;;;;6221594;22;20138;-86
2023/01/11 07:39:17;;;;;;;21.55;2.80;;;10.00;99.90;;;;;;6246273;22;20027;-84
2023/01/11 07:44:29;;;;;;;18.48;2.70;;;10.00;99.90;;;;;;6245877;22;20079;-85
2023/01/11 07:46:58;;;;;;;20.75;2.90;;;9.00;99.90;;;;;;6246910;22;20031;-90
2023/01/11 07:49:24;;;;;;;23.08;3.30;;;8.90;99.90;;;;;;6246614;22;20046;-88
2023/01/11 07:51:55;;;;;;;15.00;2.53;;;9.90;99.90;;;;;;6221379;22;20027;-90
2023/01/11 07:54:24;;;;;;;29.20;3.25;;;8.90;99.90;;;;;;6222250;22;20349;-89
2023/01/11 07:56:55;;;;;;;15.82;2.30;;;10.10;99.90;;;;;;6221783;22;20024;-86
2023/01/11 07:59:21;;;;;;;25.83;3.40;;;8.90;99.90;;;;;;6273129;22;20031;-89
2023/01/11 08:01:49;;;;;;;19.80;2.65;;;8.90;99.90;;;;;;6247130;22;20027;-87
2023/01/11 08:04:20;;;;;;;23.50;2.50;;;9.70;99.90;;;;;;6273090;22;20670;-89
2023/01/11 08:06:46;;;;;;;19.77;2.88;;;8.90;99.90;;;;;;6221106;22;20150;-88
2023/01/11 08:09:15;;;;;;;24.02;3.13;;;9.40;99.90;;;;;;6273332;22;20055;-88
2023/01/11 08:14:40;;;;;;;15.32;2.15;;;9.90;99.90;;;;;;6273189;22;20027;-85
2023/01/11 08:17:14;;;;;;;14.93;2.00;;;9.70;99.90;;;;;;6246401;22;20051;-89
2023/01/11 08:19:40;;;;;;;18.92;2.08;;;8.90;99.90;;;;;;6221065;22;20453;-87
2023/01/11 08:22:11;;;;;;;15.43;2.17;;;9.90;99.90;;;;;;6273421;22;20110;-89
2023/01/11 08:24:36;;;;;;;19.08;2.22;;;9.30;99.90;;;;;;6273819;22;20016;-86
2023/01/11 08:27:13;;;;;;;18.10;2.50;;;9.60;99.90;;;;;;6273647;22;20417;-89
2023/01/11 08:29:48;;;;;;;15.02;2.03;;;8.80;99.90;;;;;;6221730;22;20030;-88
2023/01/11 08:32:13;;;;;;;16.60;1.92;;;8.80;99.90;;;;;;6245247;22;20023;-87
2023/01/11 08:34:39;;;;;;;19.92;3.42;;;9.50;99.90;;;;;;6245244;22;20027;-89
2023/01/11 08:37:05;;;;;;;13.90;2.13;;;8.80;99.90;;;;;;6220614;22;20436;-85
2023/01/11 08:39:31;;;;;;;30.02;10.98;;;9.00;99.90;;;;;;6220220;22;20031;-88
2023/01/11 08:42:05;;;;;;;120.43;46.17;;;8.70;99.90;;;;;;6246097;22;20118;-87
2023/01/11 08:44:31;;;;;;;63.50;29.92;;;8.70;99.90;;;;;;6246433;22;20030;-89
2023/01/11 08:46:57;;;;;;;31.15;12.20;;;9.70;99.90;;;;;;6245548;22;20345;-88
2023/01/11 08:49:33;;;;;;;43.00;21.10;;;9.60;99.90;;;;;;6273256;22;20436;-89
2023/01/11 08:51:58;;;;;;;61.78;25.80;;;8.60;99.90;;;;;;6220353;22;20027;-90
2023/01/11 08:54:24;;;;;;;101.97;45.78;;;8.60;99.90;;;;;;6272951;22;20035;-88
2023/01/11 08:56:59;;;;;;;93.45;40.10;;;8.60;99.90;;;;;;6273328;22;20054;-87
2023/01/11 08:59:24;;;;;;;;;;;8.50;99.90;;;;;;6221500;22;20016;-88
2023/01/11 09:02:01;;;;;;;99.60;40.15;;;8.80;99.90;;;;;;6246168;22;19926;-88
2023/01/11 09:04:29;;;;;;;152.23;68.18;;;8.60;99.90;;;;;;6222113;22;20030;-89
2023/01/11 09:07:04;;;;;;;99.60;42.55;;;9.30;99.90;;;;;;6246583;22;20698;-89
2023/01/11 09:09:30;;;;;;;54.53;19.92;;;8.40;99.90;;;;;;6246213;22;20498;-88
2023/01/11 09:11:59;;;;;;;12.82;2.50;;;9.10;99.90;;;;;;6221974;22;20019;-85
2023/01/11 09:14:29;;;;;;;12.00;2.00;;;9.50;99.90;;;;;;6247198;22;20030;-89
2023/01/11 09:16:55;;;;;;;20.77;2.40;;;9.30;99.90;;;;;;6246329;22;20424;-90
2023/01/11 09:19:21;;;;;;;17.73;2.60;;;9.40;99.90;;;;;;6246638;22;20030;-87
2023/01/11 09:21:56;;;;;;;22.25;3.08;;;9.40;99.90;;;;;;6271699;22;20016;-88
2023/01/11 09:24:24;;;;;;;13.10;2.13;;;8.40;99.90;;;;;;6219369;22;20023;-90
2023/01/11 09:26:58;;;;;;;23.08;3.15;;;8.90;99.90;;;;;;6221399;22;20050;-89
2023/01/11 09:29:36;;;;;;;12.38;1.55;;;8.10;99.90;;;;;;6220020;22;20015;-90
2023/01/11 09:32:13;;;;;;;20.63;6.22;;;8.80;99.90;;;;;;6246002;22;20102;-91
2023/01/11 09:34:52;;;;;;;25.48;6.05;;;9.50;99.90;;;;;;6245592;22;20020;-88
2023/01/11 09:37:23;;;;;;;13.35;2.03;;;8.90;99.90;;;;;;6245931;22;20150;-88
2023/01/11 09:40:22;;;;;;;11.63;2.13;;;9.30;99.90;;;;;;6246308;22;20152;-88
2023/01/11 09:43:00;;;;;;;22.58;2.28;;;8.50;99.90;;;;;;6154510;23;20029;-90
2023/01/11 09:45:45;;;;;;;20.15;2.85;;;8.00;99.90;;;;;;6130858;23;20103;-90
2023/01/11 09:48:27;;;;;;;13.73;2.55;;;8.70;99.90;;;;;;6154333;23;20020;-88
2023/01/11 09:50:56;;;;;;;23.30;8.60;;;8.70;99.90;;;;;;6154419;23;20405;-89
2023/01/11 09:53:49;;;;;;;24.27;7.57;;;8.80;99.90;;;;;;6129733;23;20025;-89
2023/01/11 09:56:23;;;;;;;20.30;4.40;;;9.30;99.90;;;;;;6129614;23;20371;-88
2023/01/11 09:59:44;;;;;;;18.08;3.45;;;8.90;99.90;;;;;;6129385;23;20343;-89
2023/01/11 10:03:00;;;;;;;11.57;1.55;;;9.00;99.90;;;;;;6037632;23;20062;-87
2023/01/11 10:06:25;;;;;;;11.75;2.58;;;9.10;99.90;;;;;;6037168;23;20081;-89
2023/01/11 10:09:08;;;;;;;16.92;1.90;;;9.20;99.90;;;;;;5925936;24;20498;-87
2023/01/11 10:12:12;;;;;;;13.43;2.92;;;9.30;99.90;;;;;;5948447;23;20040;-87
2023/01/11 10:15:24;;;;;;;17.15;2.03;;;9.40;99.90;;;;;;5925701;24;20035;-88
2023/01/11 10:18:26;;;;;;;14.43;1.92;;;9.50;99.90;;;;;;5924702;24;20024;-86
2023/01/11 10:20:58;;;;;;;16.52;2.03;;;9.60;99.90;;;;;;5979613;23;20098;-88
2023/01/11 10:24:00;;;;;;;13.70;1.77;;;9.70;99.90;;;;;;5958095;23;20028;-86
2023/01/11 10:26:34;;;;;;;13.60;1.90;;;9.70;99.90;;;;;;6004834;23;20032;-85
2023/01/11 10:43:11;;;;;;;15.88;2.47;;;10.60;99.90;;;;;;6090773;23;20061;-84
2023/01/11 10:45:43;;;;;;;14.57;2.53;;;9.70;99.90;;;;;;6179065;23;20036;-82
2023/01/11 10:48:35;;;;;;;14.13;2.55;;;9.80;99.90;;;;;;6178934;23;20024;-89
2023/01/11 10:51:28;;;;;;;20.10;4.13;;;9.80;99.90;;;;;;6153901;23;20028;-87
2023/01/11 10:54:15;;;;;;;12.60;2.00;;;9.90;99.90;;;;;;6154104;23;20355;-86
2023/01/11 10:56:49;;;;;;;14.52;2.30;;;9.90;99.90;;;;;;6154695;23;20021;-85
2023/01/11 10:59:27;;;;;;;47.00;17.37;;;9.80;99.90;;;;;;6154497;23;20027;-84
2023/01/11 11:02:17;;;;;;;17.27;2.13;;;9.80;99.90;;;;;;6179855;23;20253;-83
2023/01/11 11:05:09;;;;;;;20.77;3.22;;;9.90;99.90;;;;;;6179250;23;20127;-84
2023/01/11 11:07:58;;;;;;;21.50;2.58;;;9.90;99.90;;;;;;6178651;23;20020;-83
2023/01/11 11:10:31;;;;;;;15.50;3.03;;;9.80;99.90;;;;;;6179097;23;20025;-83
2023/01/11 11:13:08;;;;;;;20.35;2.95;;;10.40;99.90;;;;;;6190809;22;20104;-87
2023/01/11 11:15:55;;;;;;;10.93;1.52;;;10.90;99.90;;;;;;6273249;22;20027;-82
2023/01/11 11:18:21;;;;;;;16.33;2.58;;;9.90;99.90;;;;;;6273256;22;20026;-84
2023/01/11 11:20:46;;;;;;;19.17;2.38;;;10.20;99.90;;;;;;6246287;22;20023;-81
2023/01/11 11:23:15;;;;;;;22.13;2.67;;;10.00;99.90;;;;;;6272936;22;20019;-82
2023/01/11 11:25:50;;;;;;;16.98;2.75;;;10.30;99.90;;;;;;6273435;22;20019;-86
2023/01/11 11:28:23;;;;;;;17.63;2.55;;;10.40;99.90;;;;;;6245310;22;20051;-82
2023/01/11 11:30:53;;;;;;;19.80;2.60;;;10.20;99.90;;;;;;6273385;22;20086;-83
2023/01/11 11:33:39;;;;;;;17.10;3.22;;;10.70;99.90;;;;;;6273010;22;20020;-83
2023/01/11 11:36:11;;;;;;;20.75;3.10;;;10.10;99.90;;;;;;6272890;22;20026;-81
2023/01/11 11:38:59;;;;;;;24.63;2.92;;;10.10;99.90;;;;;;6245496;22;20445;-79
2023/01/11 11:41:24;;;;;;;25.67;2.70;;;10.50;99.90;;;;;;6275361;22;20019;-82
2023/01/11 11:43:50;;;;;;;16.75;3.25;;;11.10;99.90;;;;;;6274831;22;20007;-83
2023/01/11 11:46:21;;;;;;;20.13;2.45;;;10.70;99.90;;;;;;6222827;22;20106;-82
2023/01/11 11:49:23;;;;;;;16.10;2.55;;;11.10;99.90;;;;;;6275053;22;20015;-81
2023/01/11 11:51:50;;;;;;;18.27;3.65;;;10.50;99.90;;;;;;6211027;23;20051;-82
2023/01/11 11:54:27;;;;;;;19.77;3.35;;;10.60;99.90;;;;;;6210607;23;20016;-81
2023/01/11 11:56:54;;;;;;;21.55;3.53;;;10.00;99.90;;;;;;6210863;23;20020;-82
2023/01/11 11:59:22;;;;;;;18.92;2.83;;;10.90;99.90;;;;;;6210872;22;20334;-81
2023/01/11 12:02:02;;;;;;;18.00;2.63;;;10.70;99.90;;;;;;6210902;23;20524;-80
2023/01/11 12:04:39;;;;;;;26.77;3.22;;;10.10;99.90;;;;;;6185494;23;20094;-81
2023/01/11 12:07:06;;;;;;;21.48;3.20;;;10.80;99.90;;;;;;6215624;23;20091;-80
2023/01/11 12:09:34;;;;;;;21.95;3.17;;;11.00;99.90;;;;;;6214530;23;20012;-83
2023/01/11 12:12:01;;;;;;;16.55;2.70;;;10.90;99.90;;;;;;6216065;23;20030;-81
2023/01/11 12:14:33;;;;;;;16.75;3.00;;;11.00;99.90;;;;;;6191061;23;20020;-82
2023/01/11 12:16:58;;;;;;;16.90;2.50;;;10.10;99.90;;;;;;6215636;23;20087;-82
2023/01/11 12:19:24;;;;;;;23.20;2.95;;;10.80;99.90;;;;;;6240938;23;20056;-84
2023/01/11 12:21:50;;;;;;;16.15;2.83;;;10.30;99.90;;;;;;6215299;23;20557;-81
2023/01/11 12:24:21;;;;;;;18.85;2.28;;;10.00;99.90;;;;;;6215107;23;20020;-79
2023/01/11 12:27:08;;;;;;;27.75;3.92;;;10.70;99.90;;;;;;6242685;23;20016;-82
2023/01/11 12:29:55;;;;;;;17.63;2.20;;;9.90;99.90;;;;;;6243407;23;20028;-82
2023/01/11 12:32:21;;;;;;;20.70;3.72;;;9.80;99.90;;;;;;6242198;23;20392;-81
2023/01/11 12:34:58;;;;;;;13.30;2.33;;;9.70;99.90;;;;;;6243826;23;20024;-82
2023/01/11 12:37:33;;;;;;;14.93;2.65;;;9.70;99.90;;;;;;6241900;23;20024;-80
2023/01/11 12:40:14;;;;;;;20.65;3.03;;;9.70;99.90;;;;;;6242348;23;20020;-80
2023/01/11 12:43:05;;;;;;;22.58;2.78;;;9.60;99.90;;;;;;6216386;23;20020;-81
2023/01/11 12:46:00;;;;;;;20.40;2.88;;;9.70;99.90;;;;;;6243497;23;20044;-81
2023/01/11 12:48:40;;;;;;;23.67;3.35;;;9.80;99.90;;;;;;6243071;23;20563;-81
2023/01/11 12:51:21;;;;;;;13.57;2.17;;;10.70;99.90;;;;;;6244022;23;20035;-81
2023/01/11 12:53:59;;;;;;;27.13;5.07;;;9.70;99.90;;;;;;6243327;23;20771;-82
2023/01/11 12:56:31;;;;;;;19.10;3.40;;;9.60;99.90;;;;;;6243554;23;20016;-79
2023/01/11 12:59:18;;;;;;;22.30;5.32;;;9.60;99.90;;;;;;6243560;23;20031;-80
2023/01/11 13:02:10;;;;;;;19.38;2.53;;;10.40;99.90;;;;;;6243700;23;20027;-80
2023/01/11 13:04:55;;;;;;;22.13;2.92;;;9.60;99.90;;;;;;6243741;23;20027;-79
2023/01/11 13:07:30;;;;;;;19.33;3.47;;;9.50;99.90;;;;;;6216319;23;20048;-79
2023/01/11 13:10:13;;;;;;;18.35;2.85;;;9.50;99.90;;;;;;6248352;22;20353;-80
2023/01/11 13:12:45;;;;;;;23.95;3.83;;;9.50;99.90;;;;;;6246366;22;20437;-80
2023/01/11 13:15:30;;;;;;;22.75;3.20;;;9.90;99.90;;;;;;6274685;22;20337;-80
2023/01/11 13:18:07;;;;;;;31.13;4.30;;;9.40;99.90;;;;;;6246897;22;20028;-82
2023/01/11 13:20:50;;;;;;;16.30;2.53;;;9.40;99.90;;;;;;6274278;22;20024;-80
2023/01/11 13:23:31;;;;;;;22.73;3.00;;;9.40;99.90;;;;;;6273038;22;20019;-80
2023/01/11 13:26:10;;;;;;;18.20;2.95;;;10.00;99.90;;;;;;6274069;22;20099;-82
2023/01/11 13:28:39;;;;;;;29.92;3.53;;;10.00;99.90;;;;;;6273441;22;20341;-80
2023/01/11 13:31:08;;;;;;;18.35;3.40;;;9.30;99.90;;;;;;6273151;22;20329;-81
2023/01/11 13:33:36;;;;;;;19.90;3.72;;;9.80;99.90;;;;;;6245733;22;20027;-81
2023/01/11 13:36:12;;;;;;;22.75;3.03;;;9.40;99.90;;;;;;6273302;22;20020;-83
2023/01/11 13:39:02;;;;;;;22.50;3.75;;;9.40;99.90;;;;;;6272751;22;20019;-81
2023/01/11 13:41:45;;;;;;;21.40;3.72;;;9.50;99.90;;;;;;6271671;22;20019;-82
2023/01/11 13:44:23;;;;;;;23.40;3.58;;;9.50;99.90;;;;;;6245211;22;20467;-83
2023/01/11 13:47:10;;;;;;;24.75;4.55;;;10.50;99.90;;;;;;6271080;22;20019;-80
2023/01/11 13:50:12;;;;;;;30.90;5.50;;;9.50;99.90;;;;;;6273053;22;20026;-82